sensor_id;sensor_type;location;lat;lon;timestamp;P1;durP1;ratioP1;P2;durP2;ratioP2
75667;SDS011;64266;48.798;44.756;2023-09-19T00:01:18;16.23;;;7.53;;
75667;SDS011;64266;48.798;44.756;2023-09-19T00:06:22;14.32;;;6.90;;
75667;SDS011;64266;48.798;44.756;2023-09-19T00:11:28;14.82;;;6.82;;
75667;SDS011;64266;48.798;44.756;2023-09-19T00:16:31;20.30;;;7.57;;
75667;SDS011;64266;48.798;44.756;2023-09-19T00:21:35;17.02;;;7.20;;
75667;SDS011;64266;48.798;44.756;2023-09-19T00:26:40;13.93;;;6.75;;
75667;SDS011;64266;48.798;44.756;2023-09-19T00:31:43;12.27;;;7.10;;
75667;SDS011;64266;48.798;44.756;2023-09-19T00:36:46;13.88;;;7.22;;
75667;SDS011;64266;48.798;44.756;2023-09-19T00:41:50;13.10;;;8.10;;
75667;SDS011;64266;48.798;44.756;2023-09-19T00:46:52;17.08;;;7.38;;
75667;SDS011;64266;48.798;44.756;2023-09-19T00:51:56;18.17;;;8.27;;
75667;SDS011;64266;48.798;44.756;2023-09-19T00:56:59;16.02;;;7.95;;
75667;SDS011;64266;48.798;44.756;2023-09-19T01:02:03;14.80;;;7.22;;
75667;SDS011;64266;48.798;44.756;2023-09-19T01:07:07;13.57;;;7.63;;
75667;SDS011;64266;48.798;44.756;2023-09-19T01:12:11;13.38;;;6.63;;
75667;SDS011;64266;48.798;44.756;2023-09-19T01:17:21;13.50;;;7.43;;
75667;SDS011;64266;48.798;44.756;2023-09-19T01:22:36;17.95;;;7.20;;
75667;SDS011;64266;48.798;44.756;2023-09-19T01:32:50;13.88;;;7.07;;
75667;SDS011;64266;48.798;44.756;2023-09-19T01:37:55;11.73;;;6.15;;
75667;SDS011;64266;48.798;44.756;2023-09-19T01:43:17;14.00;;;6.93;;
75667;SDS011;64266;48.798;44.756;2023-09-19T01:53:55;11.85;;;5.88;;
75667;SDS011;64266;48.798;44.756;2023-09-19T01:59:16;11.63;;;5.63;;
75667;SDS011;64266;48.798;44.756;2023-09-19T02:04:23;12.40;;;5.97;;
75667;SDS011;64266;48.798;44.756;2023-09-19T02:09:26;11.48;;;5.88;;
75667;SDS011;64266;48.798;44.756;2023-09-19T02:14:30;9.98;;;5.90;;
75667;SDS011;64266;48.798;44.756;2023-09-19T02:19:33;10.05;;;6.28;;
75667;SDS011;64266;48.798;44.756;2023-09-19T02:24:37;11.05;;;5.88;;
75667;SDS011;64266;48.798;44.756;2023-09-19T02:29:40;10.40;;;5.60;;
75667;SDS011;64266;48.798;44.756;2023-09-19T02:34:43;8.73;;;5.88;;
75667;SDS011;64266;48.798;44.756;2023-09-19T02:39:47;10.00;;;6.07;;
75667;SDS011;64266;48.798;44.756;2023-09-19T02:44:50;15.35;;;7.05;;
75667;SDS011;64266;48.798;44.756;2023-09-19T02:49:53;14.38;;;6.15;;
75667;SDS011;64266;48.798;44.756;2023-09-19T02:54:58;11.95;;;5.72;;
75667;SDS011;64266;48.798;44.756;2023-09-19T03:00:03;12.90;;;7.70;;
75667;SDS011;64266;48.798;44.756;2023-09-19T03:05:07;11.70;;;5.97;;
75667;SDS011;64266;48.798;44.756;2023-09-19T03:10:10;15.80;;;7.45;;
75667;SDS011;64266;48.798;44.756;2023-09-19T03:15:13;12.55;;;7.05;;
75667;SDS011;64266;48.798;44.756;2023-09-19T03:20:23;10.13;;;7.03;;
75667;SDS011;64266;48.798;44.756;2023-09-19T03:25:25;13.85;;;7.57;;
75667;SDS011;64266;48.798;44.756;2023-09-19T03:30:28;14.00;;;6.32;;
75667;SDS011;64266;48.798;44.756;2023-09-19T03:35:31;11.43;;;6.43;;
75667;SDS011;64266;48.798;44.756;2023-09-19T03:40:34;9.48;;;5.97;;
75667;SDS011;64266;48.798;44.756;2023-09-19T03:45:40;11.77;;;6.45;;
75667;SDS011;64266;48.798;44.756;2023-09-19T03:50:43;11.38;;;6.00;;
75667;SDS011;64266;48.798;44.756;2023-09-19T03:55:47;13.27;;;6.15;;
75667;SDS011;64266;48.798;44.756;2023-09-19T04:00:56;12.32;;;6.63;;
75667;SDS011;64266;48.798;44.756;2023-09-19T04:06:01;12.80;;;6.60;;
75667;SDS011;64266;48.798;44.756;2023-09-19T04:11:05;16.13;;;6.38;;
75667;SDS011;64266;48.798;44.756;2023-09-19T04:16:08;17.70;;;7.97;;
75667;SDS011;64266;48.798;44.756;2023-09-19T04:21:12;12.55;;;6.30;;
75667;SDS011;64266;48.798;44.756;2023-09-19T04:26:16;13.80;;;7.00;;
75667;SDS011;64266;48.798;44.756;2023-09-19T04:31:18;13.40;;;6.35;;
75667;SDS011;64266;48.798;44.756;2023-09-19T04:36:23;16.38;;;6.82;;
75667;SDS011;64266;48.798;44.756;2023-09-19T04:41:36;12.10;;;7.65;;
75667;SDS011;64266;48.798;44.756;2023-09-19T04:46:44;12.57;;;6.32;;
75667;SDS011;64266;48.798;44.756;2023-09-19T04:51:48;11.40;;;7.05;;
75667;SDS011;64266;48.798;44.756;2023-09-19T04:56:52;18.92;;;7.38;;
75667;SDS011;64266;48.798;44.756;2023-09-19T05:01:55;21.30;;;8.43;;
75667;SDS011;64266;48.798;44.756;2023-09-19T05:06:58;20.02;;;8.05;;
75667;SDS011;64266;48.798;44.756;2023-09-19T05:12:04;9.70;;;6.70;;
75667;SDS011;64266;48.798;44.756;2023-09-19T05:17:09;10.75;;;6.88;;
75667;SDS011;64266;48.798;44.756;2023-09-19T05:22:12;11.80;;;6.35;;
75667;SDS011;64266;48.798;44.756;2023-09-19T05:27:17;13.77;;;6.45;;
75667;SDS011;64266;48.798;44.756;2023-09-19T05:32:21;11.63;;;5.88;;
75667;SDS011;64266;48.798;44.756;2023-09-19T05:37:25;10.13;;;6.68;;
75667;SDS011;64266;48.798;44.756;2023-09-19T05:42:29;15.13;;;7.35;;
75667;SDS011;64266;48.798;44.756;2023-09-19T05:47:33;13.40;;;6.70;;
75667;SDS011;64266;48.798;44.756;2023-09-19T05:52:40;10.63;;;7.10;;
75667;SDS011;64266;48.798;44.756;2023-09-19T05:57:52;13.35;;;7.43;;
75667;SDS011;64266;48.798;44.756;2023-09-19T06:02:57;21.83;;;8.13;;
75667;SDS011;64266;48.798;44.756;2023-09-19T06:13:03;16.05;;;9.32;;
75667;SDS011;64266;48.798;44.756;2023-09-19T06:18:12;17.88;;;9.38;;
75667;SDS011;64266;48.798;44.756;2023-09-19T06:23:23;14.07;;;8.32;;
75667;SDS011;64266;48.798;44.756;2023-09-19T06:28:26;16.33;;;9.60;;
75667;SDS011;64266;48.798;44.756;2023-09-19T06:33:30;15.00;;;7.47;;
75667;SDS011;64266;48.798;44.756;2023-09-19T06:38:34;17.15;;;6.03;;
75667;SDS011;64266;48.798;44.756;2023-09-19T06:43:40;11.70;;;5.57;;
75667;SDS011;64266;48.798;44.756;2023-09-19T06:48:44;12.70;;;6.82;;
75667;SDS011;64266;48.798;44.756;2023-09-19T06:53:47;15.75;;;6.63;;
75667;SDS011;64266;48.798;44.756;2023-09-19T06:58:51;12.57;;;6.07;;
75667;SDS011;64266;48.798;44.756;2023-09-19T07:03:54;15.23;;;6.22;;
75667;SDS011;64266;48.798;44.756;2023-09-19T07:08:57;9.95;;;5.72;;
75667;SDS011;64266;48.798;44.756;2023-09-19T07:14:00;10.48;;;6.10;;
75667;SDS011;64266;48.798;44.756;2023-09-19T07:19:04;9.32;;;5.32;;
75667;SDS011;64266;48.798;44.756;2023-09-19T07:24:08;14.05;;;7.00;;
75667;SDS011;64266;48.798;44.756;2023-09-19T07:29:13;9.82;;;4.60;;
75667;SDS011;64266;48.798;44.756;2023-09-19T07:34:16;10.35;;;4.10;;
75667;SDS011;64266;48.798;44.756;2023-09-19T07:44:24;14.48;;;4.25;;
75667;SDS011;64266;48.798;44.756;2023-09-19T07:49:29;10.13;;;4.93;;
75667;SDS011;64266;48.798;44.756;2023-09-19T07:54:32;9.20;;;5.03;;
75667;SDS011;64266;48.798;44.756;2023-09-19T07:59:39;10.27;;;4.22;;
75667;SDS011;64266;48.798;44.756;2023-09-19T08:04:47;7.97;;;3.90;;
75667;SDS011;64266;48.798;44.756;2023-09-19T08:09:51;12.38;;;4.28;;
75667;SDS011;64266;48.798;44.756;2023-09-19T08:14:54;7.53;;;3.67;;
75667;SDS011;64266;48.798;44.756;2023-09-19T08:19:58;8.55;;;3.80;;
75667;SDS011;64266;48.798;44.756;2023-09-19T08:25:01;7.80;;;4.03;;
75667;SDS011;64266;48.798;44.756;2023-09-19T08:30:06;12.40;;;7.15;;
75667;SDS011;64266;48.798;44.756;2023-09-19T08:35:11;9.35;;;5.15;;
75667;SDS011;64266;48.798;44.756;2023-09-19T08:40:15;8.95;;;4.22;;
75667;SDS011;64266;48.798;44.756;2023-09-19T08:45:21;9.13;;;5.47;;
75667;SDS011;64266;48.798;44.756;2023-09-19T08:50:27;8.30;;;4.05;;
75667;SDS011;64266;48.798;44.756;2023-09-19T08:55:31;10.57;;;4.88;;
75667;SDS011;64266;48.798;44.756;2023-09-19T09:00:36;9.93;;;4.25;;
75667;SDS011;64266;48.798;44.756;2023-09-19T09:05:41;9.27;;;4.45;;
75667;SDS011;64266;48.798;44.756;2023-09-19T09:10:46;8.27;;;3.90;;
75667;SDS011;64266;48.798;44.756;2023-09-19T09:15:51;7.72;;;3.72;;
75667;SDS011;64266;48.798;44.756;2023-09-19T09:20:57;5.55;;;3.33;;
75667;SDS011;64266;48.798;44.756;2023-09-19T09:26:01;6.32;;;3.60;;
75667;SDS011;64266;48.798;44.756;2023-09-19T09:46:06;6.55;;;3.97;;
75667;SDS011;64266;48.798;44.756;2023-09-19T09:52:55;6.53;;;3.53;;
75667;SDS011;64266;48.798;44.756;2023-09-19T09:58:16;5.88;;;3.08;;
75667;SDS011;64266;48.798;44.756;2023-09-19T10:03:35;6.20;;;2.83;;
75667;SDS011;64266;48.798;44.756;2023-09-19T10:14:15;7.20;;;3.47;;
75667;SDS011;64266;48.798;44.756;2023-09-19T10:19:23;8.02;;;3.00;;
75667;SDS011;64266;48.798;44.756;2023-09-19T10:24:33;5.43;;;3.38;;
75667;SDS011;64266;48.798;44.756;2023-09-19T10:29:50;6.35;;;3.38;;
75667;SDS011;64266;48.798;44.756;2023-09-19T10:34:58;5.50;;;3.00;;
75667;SDS011;64266;48.798;44.756;2023-09-19T10:40:05;8.25;;;3.03;;
75667;SDS011;64266;48.798;44.756;2023-09-19T10:45:15;7.85;;;2.75;;
75667;SDS011;64266;48.798;44.756;2023-09-19T10:50:22;11.57;;;2.90;;
75667;SDS011;64266;48.798;44.756;2023-09-19T10:55:27;9.18;;;3.05;;
75667;SDS011;64266;48.798;44.756;2023-09-19T11:00:48;9.43;;;5.15;;
75667;SDS011;64266;48.798;44.756;2023-09-19T11:11:39;7.97;;;3.05;;
75667;SDS011;64266;48.798;44.756;2023-09-19T11:17:29;7.22;;;2.88;;
75667;SDS011;64266;48.798;44.756;2023-09-19T11:22:18;11.65;;;3.03;;
75667;SDS011;64266;48.798;44.756;2023-09-19T11:27:24;7.60;;;3.20;;
75667;SDS011;64266;48.798;44.756;2023-09-19T11:38:10;6.13;;;2.95;;
75667;SDS011;64266;48.798;44.756;2023-09-19T11:43:29;6.72;;;3.03;;
75667;SDS011;64266;48.798;44.756;2023-09-19T11:48:40;6.55;;;2.78;;
75667;SDS011;64266;48.798;44.756;2023-09-19T11:53:45;5.93;;;3.10;;
75667;SDS011;64266;48.798;44.756;2023-09-19T11:58:53;5.82;;;2.75;;
75667;SDS011;64266;48.798;44.756;2023-09-19T12:03:59;4.72;;;2.55;;
75667;SDS011;64266;48.798;44.756;2023-09-19T12:09:05;7.45;;;3.17;;
75667;SDS011;64266;48.798;44.756;2023-09-19T12:14:21;8.05;;;3.95;;
75667;SDS011;64266;48.798;44.756;2023-09-19T12:19:25;14.25;;;7.40;;
75667;SDS011;64266;48.798;44.756;2023-09-19T12:24:34;10.00;;;5.35;;
75667;SDS011;64266;48.798;44.756;2023-09-19T12:29:42;6.32;;;3.20;;
75667;SDS011;64266;48.798;44.756;2023-09-19T12:34:51;7.10;;;2.78;;
75667;SDS011;64266;48.798;44.756;2023-09-19T12:40:06;6.57;;;2.80;;
75667;SDS011;64266;48.798;44.756;2023-09-19T12:45:19;5.47;;;2.67;;
75667;SDS011;64266;48.798;44.756;2023-09-19T12:50:24;5.90;;;2.70;;
75667;SDS011;64266;48.798;44.756;2023-09-19T12:55:32;12.13;;;8.38;;
75667;SDS011;64266;48.798;44.756;2023-09-19T13:00:35;6.18;;;3.38;;
75667;SDS011;64266;48.798;44.756;2023-09-19T13:05:51;5.43;;;3.17;;
75667;SDS011;64266;48.798;44.756;2023-09-19T13:11:00;9.93;;;3.45;;
75667;SDS011;64266;48.798;44.756;2023-09-19T13:16:11;6.90;;;3.38;;
75667;SDS011;64266;48.798;44.756;2023-09-19T13:21:32;11.25;;;5.00;;
75667;SDS011;64266;48.798;44.756;2023-09-19T13:26:41;8.75;;;3.80;;
75667;SDS011;64266;48.798;44.756;2023-09-19T13:31:50;7.80;;;3.40;;
75667;SDS011;64266;48.798;44.756;2023-09-19T13:36:56;10.15;;;6.28;;
75667;SDS011;64266;48.798;44.756;2023-09-19T13:42:01;9.07;;;4.25;;
75667;SDS011;64266;48.798;44.756;2023-09-19T13:47:05;9.93;;;4.65;;
75667;SDS011;64266;48.798;44.756;2023-09-19T13:52:12;19.95;;;9.02;;
75667;SDS011;64266;48.798;44.756;2023-09-19T13:57:16;10.80;;;4.57;;
75667;SDS011;64266;48.798;44.756;2023-09-19T14:02:19;9.68;;;4.50;;
75667;SDS011;64266;48.798;44.756;2023-09-19T14:07:23;8.90;;;4.00;;
75667;SDS011;64266;48.798;44.756;2023-09-19T14:12:26;7.75;;;4.55;;
75667;SDS011;64266;48.798;44.756;2023-09-19T14:17:29;8.88;;;4.93;;
75667;SDS011;64266;48.798;44.756;2023-09-19T14:22:42;11.35;;;4.85;;
75667;SDS011;64266;48.798;44.756;2023-09-19T14:27:46;15.20;;;4.93;;
75667;SDS011;64266;48.798;44.756;2023-09-19T14:32:50;14.13;;;6.10;;
75667;SDS011;64266;48.798;44.756;2023-09-19T14:37:53;16.48;;;5.65;;
75667;SDS011;64266;48.798;44.756;2023-09-19T14:42:55;29.65;;;14.77;;
75667;SDS011;64266;48.798;44.756;2023-09-19T14:47:58;23.52;;;7.68;;
75667;SDS011;64266;48.798;44.756;2023-09-19T14:53:01;17.67;;;6.85;;
75667;SDS011;64266;48.798;44.756;2023-09-19T14:58:05;25.35;;;7.00;;
75667;SDS011;64266;48.798;44.756;2023-09-19T15:03:07;17.80;;;7.70;;
75667;SDS011;64266;48.798;44.756;2023-09-19T15:08:10;21.90;;;7.78;;
75667;SDS011;64266;48.798;44.756;2023-09-19T15:13:22;22.42;;;8.07;;
75667;SDS011;64266;48.798;44.756;2023-09-19T15:18:25;25.70;;;7.82;;
75667;SDS011;64266;48.798;44.756;2023-09-19T15:23:28;26.13;;;7.57;;
75667;SDS011;64266;48.798;44.756;2023-09-19T15:28:33;26.45;;;8.93;;
75667;SDS011;64266;48.798;44.756;2023-09-19T15:33:37;30.75;;;9.35;;
75667;SDS011;64266;48.798;44.756;2023-09-19T15:39:15;50.38;;;17.23;;
75667;SDS011;64266;48.798;44.756;2023-09-19T15:44:14;24.13;;;9.25;;
75667;SDS011;64266;48.798;44.756;2023-09-19T15:49:18;31.88;;;10.27;;
75667;SDS011;64266;48.798;44.756;2023-09-19T15:54:21;50.00;;;12.02;;
75667;SDS011;64266;48.798;44.756;2023-09-19T15:59:24;40.63;;;11.40;;
75667;SDS011;64266;48.798;44.756;2023-09-19T16:04:27;50.90;;;12.77;;
75667;SDS011;64266;48.798;44.756;2023-09-19T16:09:30;38.63;;;10.65;;
75667;SDS011;64266;48.798;44.756;2023-09-19T16:14:33;35.63;;;11.07;;
75667;SDS011;64266;48.798;44.756;2023-09-19T16:19:35;37.88;;;10.68;;
75667;SDS011;64266;48.798;44.756;2023-09-19T16:24:39;32.03;;;10.30;;
75667;SDS011;64266;48.798;44.756;2023-09-19T16:29:41;42.85;;;12.50;;
75667;SDS011;64266;48.798;44.756;2023-09-19T16:34:44;46.90;;;11.38;;
75667;SDS011;64266;48.798;44.756;2023-09-19T16:39:47;49.03;;;12.68;;
75667;SDS011;64266;48.798;44.756;2023-09-19T16:44:49;37.28;;;12.63;;
75667;SDS011;64266;48.798;44.756;2023-09-19T16:49:52;31.90;;;12.75;;
75667;SDS011;64266;48.798;44.756;2023-09-19T16:54:55;38.05;;;13.38;;
75667;SDS011;64266;48.798;44.756;2023-09-19T16:59:59;41.42;;;13.95;;
75667;SDS011;64266;48.798;44.756;2023-09-19T17:05:02;48.97;;;14.68;;
75667;SDS011;64266;48.798;44.756;2023-09-19T17:10:08;40.72;;;14.57;;
75667;SDS011;64266;48.798;44.756;2023-09-19T17:15:11;33.58;;;12.55;;
75667;SDS011;64266;48.798;44.756;2023-09-19T17:20:16;31.13;;;11.60;;
75667;SDS011;64266;48.798;44.756;2023-09-19T17:25:19;39.60;;;13.60;;
75667;SDS011;64266;48.798;44.756;2023-09-19T17:30:23;32.35;;;14.25;;
75667;SDS011;64266;48.798;44.756;2023-09-19T17:35:25;36.95;;;13.63;;
75667;SDS011;64266;48.798;44.756;2023-09-19T17:40:28;35.25;;;14.38;;
75667;SDS011;64266;48.798;44.756;2023-09-19T17:45:31;30.63;;;14.50;;
75667;SDS011;64266;48.798;44.756;2023-09-19T17:50:34;31.60;;;15.02;;
75667;SDS011;64266;48.798;44.756;2023-09-19T17:55:38;31.48;;;15.20;;
75667;SDS011;64266;48.798;44.756;2023-09-19T18:00:41;36.65;;;15.25;;
75667;SDS011;64266;48.798;44.756;2023-09-19T18:05:50;41.55;;;17.23;;
75667;SDS011;64266;48.798;44.756;2023-09-19T18:10:54;43.30;;;16.60;;
75667;SDS011;64266;48.798;44.756;2023-09-19T18:15:57;44.67;;;17.05;;
75667;SDS011;64266;48.798;44.756;2023-09-19T18:21:01;41.80;;;17.85;;
75667;SDS011;64266;48.798;44.756;2023-09-19T18:26:04;36.90;;;16.95;;
75667;SDS011;64266;48.798;44.756;2023-09-19T18:31:09;43.50;;;16.65;;
75667;SDS011;64266;48.798;44.756;2023-09-19T18:36:12;41.22;;;16.60;;
75667;SDS011;64266;48.798;44.756;2023-09-19T18:41:15;44.10;;;19.00;;
75667;SDS011;64266;48.798;44.756;2023-09-19T18:46:18;42.90;;;17.65;;
75667;SDS011;64266;48.798;44.756;2023-09-19T18:51:21;50.03;;;19.55;;
75667;SDS011;64266;48.798;44.756;2023-09-19T18:56:25;55.58;;;20.83;;
75667;SDS011;64266;48.798;44.756;2023-09-19T19:01:27;42.55;;;18.73;;
75667;SDS011;64266;48.798;44.756;2023-09-19T19:06:30;41.53;;;18.50;;
75667;SDS011;64266;48.798;44.756;2023-09-19T19:11:34;38.03;;;16.80;;
75667;SDS011;64266;48.798;44.756;2023-09-19T19:16:38;36.67;;;17.67;;
75667;SDS011;64266;48.798;44.756;2023-09-19T19:21:41;39.47;;;16.50;;
75667;SDS011;64266;48.798;44.756;2023-09-19T19:26:44;31.95;;;16.70;;
75667;SDS011;64266;48.798;44.756;2023-09-19T19:31:47;29.13;;;16.48;;
75667;SDS011;64266;48.798;44.756;2023-09-19T19:36:51;37.55;;;16.58;;
75667;SDS011;64266;48.798;44.756;2023-09-19T19:41:53;43.72;;;15.80;;
75667;SDS011;64266;48.798;44.756;2023-09-19T19:46:56;42.38;;;16.40;;
75667;SDS011;64266;48.798;44.756;2023-09-19T19:51:59;42.85;;;19.23;;
75667;SDS011;64266;48.798;44.756;2023-09-19T19:57:01;45.00;;;17.25;;
75667;SDS011;64266;48.798;44.756;2023-09-19T20:02:06;44.72;;;19.67;;
75667;SDS011;64266;48.798;44.756;2023-09-19T20:07:08;54.22;;;19.98;;
75667;SDS011;64266;48.798;44.756;2023-09-19T20:12:12;44.42;;;19.20;;
75667;SDS011;64266;48.798;44.756;2023-09-19T20:17:15;35.50;;;17.77;;
75667;SDS011;64266;48.798;44.756;2023-09-19T20:22:18;47.88;;;18.52;;
75667;SDS011;64266;48.798;44.756;2023-09-19T20:27:21;35.50;;;17.75;;
75667;SDS011;64266;48.798;44.756;2023-09-19T20:32:24;43.17;;;18.73;;
75667;SDS011;64266;48.798;44.756;2023-09-19T20:37:26;40.97;;;17.55;;
75667;SDS011;64266;48.798;44.756;2023-09-19T20:42:30;46.05;;;18.67;;
75667;SDS011;64266;48.798;44.756;2023-09-19T20:47:33;52.95;;;19.75;;
75667;SDS011;64266;48.798;44.756;2023-09-19T20:52:36;39.75;;;17.92;;
75667;SDS011;64266;48.798;44.756;2023-09-19T20:57:40;40.50;;;18.25;;
75667;SDS011;64266;48.798;44.756;2023-09-19T21:02:43;37.13;;;17.45;;
75667;SDS011;64266;48.798;44.756;2023-09-19T21:07:48;40.28;;;18.33;;
75667;SDS011;64266;48.798;44.756;2023-09-19T21:12:50;34.95;;;17.80;;
75667;SDS011;64266;48.798;44.756;2023-09-19T21:17:53;44.58;;;17.92;;
75667;SDS011;64266;48.798;44.756;2023-09-19T21:22:56;38.72;;;17.23;;
75667;SDS011;64266;48.798;44.756;2023-09-19T21:27:59;35.40;;;16.55;;
75667;SDS011;64266;48.798;44.756;2023-09-19T21:33:04;45.50;;;17.20;;
75667;SDS011;64266;48.798;44.756;2023-09-19T21:38:07;33.60;;;15.98;;
75667;SDS011;64266;48.798;44.756;2023-09-19T21:43:11;39.90;;;15.98;;
75667;SDS011;64266;48.798;44.756;2023-09-19T21:48:14;40.20;;;16.08;;
75667;SDS011;64266;48.798;44.756;2023-09-19T21:53:16;38.95;;;15.77;;
75667;SDS011;64266;48.798;44.756;2023-09-19T21:58:19;34.15;;;15.55;;
75667;SDS011;64266;48.798;44.756;2023-09-19T22:03:22;40.28;;;16.20;;
75667;SDS011;64266;48.798;44.756;2023-09-19T22:08:27;37.00;;;16.33;;
75667;SDS011;64266;48.798;44.756;2023-09-19T22:13:29;42.13;;;18.10;;
75667;SDS011;64266;48.798;44.756;2023-09-19T22:18:33;45.92;;;16.60;;
75667;SDS011;64266;48.798;44.756;2023-09-19T22:23:37;41.75;;;17.50;;
75667;SDS011;64266;48.798;44.756;2023-09-19T22:28:45;42.45;;;18.73;;
75667;SDS011;64266;48.798;44.756;2023-09-19T22:33:55;42.47;;;18.67;;
75667;SDS011;64266;48.798;44.756;2023-09-19T22:38:59;43.70;;;18.27;;
75667;SDS011;64266;48.798;44.756;2023-09-19T22:44:21;41.10;;;17.70;;
75667;SDS011;64266;48.798;44.756;2023-09-19T22:49:23;38.92;;;16.73;;
75667;SDS011;64266;48.798;44.756;2023-09-19T22:59:38;40.22;;;16.92;;
75667;SDS011;64266;48.798;44.756;2023-09-19T23:04:43;45.13;;;19.42;;
75667;SDS011;64266;48.798;44.756;2023-09-19T23:09:46;38.20;;;18.30;;
75667;SDS011;64266;48.798;44.756;2023-09-19T23:14:49;48.38;;;19.50;;
75667;SDS011;64266;48.798;44.756;2023-09-19T23:19:51;42.05;;;19.60;;
75667;SDS011;64266;48.798;44.756;2023-09-19T23:24:58;38.67;;;19.67;;
75667;SDS011;64266;48.798;44.756;2023-09-19T23:30:15;41.20;;;20.60;;
75667;SDS011;64266;48.798;44.756;2023-09-19T23:35:19;48.50;;;21.25;;
75667;SDS011;64266;48.798;44.756;2023-09-19T23:40:24;43.90;;;19.95;;
75667;SDS011;64266;48.798;44.756;2023-09-19T23:45:29;43.08;;;20.83;;
75667;SDS011;64266;48.798;44.756;2023-09-19T23:50:32;48.38;;;22.27;;
75667;SDS011;64266;48.798;44.756;2023-09-19T23:55:36;44.90;;;20.65;;
